Discovery — 3FII9 — position and weather

sailwx.info

Track history (hours):
 
Tides and Currents Weather Stations Pressure Air Temp Water Temp Dewpoint Dewpoint Depression Visibility Wind Speed Wind Dir Waves Ship Positions

Discovery

Operator: V Ships Leisure SAM

Last reported at 2015-Mar-16 22:28 UTC. Time now 2015-Mar-27 08:14 UTC.
Position N 30°25' W 009°42'.
Warning: this ship's position is 10 days out of date.

Length 177 m; draft 9.6 m.

Type: Cargo ship. MMSI: 353389000.

Date/timePositionNaut miles runAvg speedWind from/ knotsBaromVisibWave heightAir tempDewpointWater temp
2015-Mar-16 22:28N 30°25' W 009°42'2 0.9
2015-Mar-16 20:33N 30°24' W 009°43'1311.0
2015-Mar-16 19:24N 30°21' W 009°57'1011.6
2015-Mar-16 18:33N 30°18' W 010°08'1211.2
2015-Mar-16 17:28N 30°16' W 010°22'1111.3
2015-Mar-16 16:31N 30°14' W 010°34'2311.5
2015-Mar-16 14:30N 30°09' W 011°01'6910.9
2015-Mar-16 08:09N 29°54' W 012°19'610.7
2015-Mar-16 07:33N 29°53' W 012°26'1110.8
2015-Mar-16 06:33N 29°50' W 012°38'1110.7
2015-Mar-16 05:33N 29°48' W 012°50'1110.9
2015-Mar-16 04:33N 29°46' W 013°02'1310.9
2015-Mar-16 03:20N 29°43' W 013°17'810.7
2015-Mar-16 02:33N 29°41' W 013°27'1510.7
2015-Mar-16 01:07N 29°38' W 013°44'911.0
2015-Mar-16 00:15N 29°32' W 013°52'811.2
2015-Mar-15 23:33N 29°26' W 013°59'1110.8
2015-Mar-15 22:33N 29°19' W 014°08'1110.8
2015-Mar-15 21:33N 29°12' W 014°18'1111.1
2015-Mar-15 20:33N 29°05' W 014°27'1111.0
2015-Mar-15 19:33N 28°57' W 014°36'1110.8
2015-Mar-15 18:33N 28°48' W 014°44'1110.9
2015-Mar-15 17:33N 28°40' W 014°52'1110.9
2015-Mar-15 16:33N 28°32' W 014°60'1110.8
2015-Mar-15 15:33N 28°24' W 015°08'1110.5
2015-Mar-15 14:33N 28°16' W 015°16'1010.1
2015-Mar-15 13:33N 28°08' W 015°23'2 1.8
2015-Mar-15 12:33N 28°07' W 015°24'0 0.0
2015-Mar-15 11:24N 28°07' W 015°24'0 0.0
2015-Mar-15 10:27N 28°07' W 015°24'0 0.0
2015-Mar-15 09:27N 28°07' W 015°24'0 0.0
2015-Mar-15 08:27N 28°07' W 015°24'0 0.0
2015-Mar-15 07:30N 28°07' W 015°24'0 0.0
2015-Mar-15 06:30N 28°07' W 015°24'0 0.0
2015-Mar-15 05:30N 28°07' W 015°24'0 0.0
2015-Mar-15 04:33N 28°07' W 015°24'0 0.0
2015-Mar-15 03:33N 28°07' W 015°24'0 0.0
2015-Mar-15 02:33N 28°07' W 015°24'0 0.0
2015-Mar-15 01:33N 28°07' W 015°24'1 0.6
2015-Mar-15 00:33N 28°06' W 015°24'6 6.0
2015-Mar-14 23:33N 28°01' W 015°20'1010.1
2015-Mar-14 22:33N 27°51' W 015°17'  
Track history (hours):
 
Tides and Currents Weather Stations Pressure Air Temp Water Temp Dewpoint Dewpoint Depression Visibility Wind Speed Wind Dir Waves Ship Positions

Discovery

Operator: V Ships Leisure SAM

Last reported at 2015-Mar-16 22:28 UTC. Time now 2015-Mar-27 08:14 UTC.
Position N 30°25' W 009°42'.
Warning: this ship's position is 10 days out of date.

Length 177 m; draft 9.6 m.

Type: Cargo ship. MMSI: 353389000.

Date/timePositionNaut miles runAvg speedWind from/ knotsBaromVisibWave heightAir tempDewpointWater temp
2015-Mar-16 22:28N 30°25' W 009°42'2 0.9
2015-Mar-16 20:33N 30°24' W 009°43'1311.0
2015-Mar-16 19:24N 30°21' W 009°57'1011.6
2015-Mar-16 18:33N 30°18' W 010°08'1211.2
2015-Mar-16 17:28N 30°16' W 010°22'1111.3
2015-Mar-16 16:31N 30°14' W 010°34'2311.5
2015-Mar-16 14:30N 30°09' W 011°01'6910.9
2015-Mar-16 08:09N 29°54' W 012°19'610.7
2015-Mar-16 07:33N 29°53' W 012°26'1110.8
2015-Mar-16 06:33N 29°50' W 012°38'1110.7
2015-Mar-16 05:33N 29°48' W 012°50'1110.9
2015-Mar-16 04:33N 29°46' W 013°02'1310.9
2015-Mar-16 03:20N 29°43' W 013°17'810.7
2015-Mar-16 02:33N 29°41' W 013°27'1510.7
2015-Mar-16 01:07N 29°38' W 013°44'911.0
2015-Mar-16 00:15N 29°32' W 013°52'811.2
2015-Mar-15 23:33N 29°26' W 013°59'1110.8
2015-Mar-15 22:33N 29°19' W 014°08'1110.8
2015-Mar-15 21:33N 29°12' W 014°18'1111.1
2015-Mar-15 20:33N 29°05' W 014°27'1111.0
2015-Mar-15 19:33N 28°57' W 014°36'1110.8
2015-Mar-15 18:33N 28°48' W 014°44'1110.9
2015-Mar-15 17:33N 28°40' W 014°52'1110.9
2015-Mar-15 16:33N 28°32' W 014°60'1110.8
2015-Mar-15 15:33N 28°24' W 015°08'1110.5
2015-Mar-15 14:33N 28°16' W 015°16'1010.1
2015-Mar-15 13:33N 28°08' W 015°23'2 1.8
2015-Mar-15 12:33N 28°07' W 015°24'0 0.0
2015-Mar-15 11:24N 28°07' W 015°24'0 0.0
2015-Mar-15 10:27N 28°07' W 015°24'0 0.0
2015-Mar-15 09:27N 28°07' W 015°24'0 0.0
2015-Mar-15 08:27N 28°07' W 015°24'0 0.0
2015-Mar-15 07:30N 28°07' W 015°24'0 0.0
2015-Mar-15 06:30N 28°07' W 015°24'0 0.0
2015-Mar-15 05:30N 28°07' W 015°24'0 0.0
2015-Mar-15 04:33N 28°07' W 015°24'0 0.0
2015-Mar-15 03:33N 28°07' W 015°24'0 0.0
2015-Mar-15 02:33N 28°07' W 015°24'0 0.0
2015-Mar-15 01:33N 28°07' W 015°24'1 0.6
2015-Mar-15 00:33N 28°06' W 015°24'6 6.0
2015-Mar-14 23:33N 28°01' W 015°20'1010.1
2015-Mar-14 22:33N 27°51' W 015°17'  

Dump ship's entire track history